createdAt,value
2019-02-17T00:03:38.427Z,0.20
2019-02-17T00:08:39.530Z,0.20
2019-02-17T00:13:40.623Z,0.20
2019-02-17T00:18:41.758Z,0.30
2019-02-17T00:23:42.843Z,0.20
2019-02-17T00:28:44.176Z,0.10
2019-02-17T00:33:46.146Z,1.10
2019-02-17T00:38:47.258Z,0.10
2019-02-17T00:43:48.372Z,0.20
2019-02-17T00:48:49.492Z,0.10
2019-02-17T00:53:50.707Z,0.00
2019-02-17T00:58:51.811Z,0.30
2019-02-17T01:03:52.903Z,-0.10
2019-02-17T01:08:54.008Z,-0.20
2019-02-17T01:13:55.099Z,-0.40
2019-02-17T01:18:56.243Z,-0.50
2019-02-17T01:23:57.335Z,-0.40
2019-02-17T01:28:58.440Z,-0.40
2019-02-17T01:34:08.355Z,0.10
2019-02-17T01:39:09.480Z,-0.50
2019-02-17T01:44:10.595Z,-0.60
2019-02-17T01:49:11.704Z,-0.60
2019-02-17T01:54:12.836Z,-0.70
2019-02-17T01:59:13.933Z,-0.80
2019-02-17T02:04:15.140Z,-1.00
2019-02-17T02:09:16.237Z,-1.00
2019-02-17T02:14:17.344Z,-1.10
2019-02-17T02:19:18.471Z,-1.00
2019-02-17T02:24:19.561Z,-1.00
2019-02-17T02:29:20.670Z,-1.00
2019-02-17T02:34:21.759Z,-1.20
2019-02-17T02:39:22.859Z,-1.10
2019-02-17T02:44:23.977Z,-1.20
2019-02-17T02:49:25.074Z,-1.10
2019-02-17T02:54:26.259Z,-1.10
2019-02-17T02:59:27.355Z,-1.10
2019-02-17T03:04:28.498Z,-1.10
2019-02-17T03:09:29.620Z,-1.10
2019-02-17T03:14:30.924Z,-1.00
2019-02-17T03:19:32.039Z,-1.00
2019-02-17T03:24:33.136Z,-1.00
2019-02-17T03:29:34.242Z,0.70
2019-02-17T03:34:35.352Z,-1.20
2019-02-17T03:39:36.459Z,-1.20
2019-02-17T03:44:37.564Z,-1.20
2019-02-17T03:49:38.674Z,-1.30
2019-02-17T03:54:39.764Z,-1.30
2019-02-17T03:59:40.862Z,-1.40
2019-02-17T04:04:41.946Z,-1.40
2019-02-17T04:09:43.039Z,-1.30
2019-02-17T04:14:44.150Z,-1.30
2019-02-17T04:19:45.252Z,-1.40
2019-02-17T04:24:46.339Z,-1.40
2019-02-17T04:29:47.461Z,-1.50
2019-02-17T04:34:48.544Z,-1.50
2019-02-17T04:39:49.668Z,-1.50
2019-02-17T04:44:50.907Z,-1.40
2019-02-17T04:49:52.100Z,-1.20
2019-02-17T04:54:53.411Z,-1.00
2019-02-17T04:59:54.483Z,-1.00
2019-02-17T05:04:55.591Z,-0.70
2019-02-17T05:09:56.668Z,-0.70
2019-02-17T05:14:57.755Z,-0.50
2019-02-17T05:19:58.866Z,-0.50
2019-02-17T05:24:59.962Z,-0.80
2019-02-17T05:30:01.162Z,-1.10
2019-02-17T05:35:03.657Z,-1.30
2019-02-17T05:40:05.609Z,-1.50
2019-02-17T05:45:07.790Z,-1.70
2019-02-17T05:50:08.976Z,-1.80
2019-02-17T05:55:10.075Z,-1.90
2019-02-17T06:00:12.568Z,-2.00
2019-02-17T06:05:13.660Z,-2.00
2019-02-17T06:10:14.750Z,-2.10
2019-02-17T06:15:15.864Z,-2.10
2019-02-17T06:20:16.963Z,-2.20
2019-02-17T06:25:18.073Z,-2.80
2019-02-17T06:30:19.190Z,-2.40
2019-02-17T06:35:20.287Z,-2.40
2019-02-17T06:40:21.380Z,-2.50
2019-02-17T06:45:22.625Z,-2.30
2019-02-17T06:50:23.828Z,-2.10
2019-02-17T06:55:29.596Z,-1.40
2019-02-17T07:00:35.515Z,-1.90
2019-02-17T07:05:38.596Z,-1.70
2019-02-17T07:10:39.675Z,-1.50
2019-02-17T07:15:40.788Z,-1.30
2019-02-17T07:20:41.996Z,-1.00
2019-02-17T07:25:43.088Z,-0.70
2019-02-17T07:30:44.183Z,-0.40
2019-02-17T07:35:45.275Z,-0.20
2019-02-17T07:40:46.496Z,0.00
2019-02-17T07:45:47.623Z,0.30
2019-02-17T07:50:48.703Z,0.60
2019-02-17T07:55:49.912Z,0.90
2019-02-17T08:00:51.026Z,1.30
2019-02-17T08:05:52.213Z,1.70
2019-02-17T08:11:03.471Z,2.20
2019-02-17T08:15:56.354Z,3.60
2019-02-17T08:20:57.464Z,3.20
2019-02-17T08:25:58.559Z,4.70
2019-02-17T08:30:59.656Z,7.60
2019-02-17T08:36:00.770Z,9.80
2019-02-17T08:41:01.900Z,11.20
2019-02-17T08:46:03.134Z,12.70
2019-02-17T08:51:04.235Z,14.10
2019-02-17T08:56:05.340Z,14.70
2019-02-17T09:01:06.447Z,15.90
2019-02-17T09:06:07.548Z,15.90
2019-02-17T09:11:08.685Z,15.90
2019-02-17T09:16:09.814Z,14.70
2019-02-17T09:26:29.741Z,15.60
2019-02-17T09:31:31.018Z,15.00
2019-02-17T09:36:32.138Z,14.90
2019-02-17T09:41:33.238Z,14.80
2019-02-17T09:46:34.535Z,16.20
2019-02-17T09:51:35.647Z,16.40
2019-02-17T09:56:36.775Z,17.00
2019-02-17T10:01:37.884Z,17.10
2019-02-17T10:06:38.993Z,18.80
2019-02-17T10:11:40.408Z,18.20
2019-02-17T10:16:41.558Z,19.00
2019-02-17T10:21:42.673Z,19.10
2019-02-17T10:26:43.813Z,18.00
2019-02-17T10:31:44.941Z,19.40
2019-02-17T10:36:46.128Z,20.70
2019-02-17T10:41:47.347Z,21.10
2019-02-17T10:46:48.622Z,21.00
2019-02-17T10:51:49.869Z,21.10
2019-02-17T10:56:51.167Z,20.70
2019-02-17T11:01:52.272Z,22.10
2019-02-17T11:06:53.379Z,21.30
2019-02-17T11:11:54.473Z,22.00
2019-02-17T11:16:55.638Z,21.50
2019-02-17T11:21:56.749Z,21.40
2019-02-17T11:26:57.887Z,21.80
2019-02-17T11:31:59.011Z,21.60
2019-02-17T11:37:00.212Z,21.10
2019-02-17T11:42:01.428Z,21.70
2019-02-17T11:47:02.659Z,20.70
2019-02-17T11:52:03.862Z,21.10
2019-02-17T11:57:05.883Z,21.70
2019-02-17T12:02:07.020Z,22.30
2019-02-17T12:07:08.117Z,23.00
2019-02-17T12:12:09.326Z,21.90
2019-02-17T12:17:10.572Z,23.00
2019-02-17T12:22:13.871Z,24.30
2019-02-17T12:27:19.954Z,25.00
2019-02-17T12:32:23.022Z,27.00
2019-02-17T12:37:24.192Z,27.00
2019-02-17T12:42:25.311Z,26.30
2019-02-17T12:47:26.476Z,27.50
2019-02-17T12:52:27.785Z,28.60
2019-02-17T12:57:28.892Z,28.40
2019-02-17T13:02:30.017Z,28.20
2019-02-17T13:07:31.148Z,29.00
2019-02-17T13:12:32.276Z,30.30
2019-02-17T13:17:33.420Z,28.60
2019-02-17T13:22:34.520Z,29.70
2019-02-17T13:27:35.637Z,31.80
2019-02-17T13:32:36.748Z,30.20
2019-02-17T13:37:37.900Z,32.00
2019-02-17T13:42:38.984Z,32.70
2019-02-17T13:47:40.307Z,31.60
2019-02-17T13:52:41.614Z,31.80
2019-02-17T13:57:42.720Z,32.10
2019-02-17T14:02:43.841Z,34.00
2019-02-17T14:07:44.943Z,32.40
2019-02-17T14:12:46.160Z,32.80
2019-02-17T14:17:47.402Z,33.90
2019-02-17T14:22:48.532Z,33.30
2019-02-17T14:27:49.796Z,32.90
2019-02-17T14:32:50.916Z,31.70
2019-02-17T14:37:52.069Z,35.00
2019-02-17T14:42:55.350Z,35.10
2019-02-17T14:47:56.280Z,37.50
2019-02-17T14:52:57.375Z,35.40
2019-02-17T14:58:04.974Z,36.20
2019-02-17T15:03:01.517Z,37.30
2019-02-17T15:08:02.725Z,33.30
2019-02-17T15:13:03.862Z,31.70
2019-02-17T15:18:04.986Z,32.90
2019-02-17T15:23:06.088Z,33.60
2019-02-17T15:28:07.220Z,35.60
2019-02-17T15:33:08.365Z,35.70
2019-02-17T15:38:09.482Z,35.90
2019-02-17T15:43:10.610Z,35.60
2019-02-17T15:48:11.720Z,33.80
2019-02-17T15:53:12.845Z,32.20
2019-02-17T15:58:14.029Z,31.10
2019-02-17T16:03:15.153Z,30.50
2019-02-17T16:08:16.249Z,28.10
2019-02-17T16:13:17.529Z,24.80
2019-02-17T16:18:18.659Z,23.00
2019-02-17T16:23:19.768Z,19.50
2019-02-17T16:28:20.905Z,16.70
2019-02-17T16:33:22.049Z,14.80
2019-02-17T16:38:23.292Z,13.70
2019-02-17T16:43:24.438Z,12.70
2019-02-17T16:48:25.638Z,12.00
2019-02-17T16:53:26.770Z,11.40
2019-02-17T16:58:28.015Z,10.80
2019-02-17T17:03:29.335Z,13.80
2019-02-17T17:08:30.539Z,10.40
2019-02-17T17:13:31.683Z,10.50
2019-02-17T17:18:33.560Z,10.30
2019-02-17T17:23:34.725Z,10.10
2019-02-17T17:28:36.077Z,10.70
2019-02-17T17:33:37.266Z,9.90
2019-02-17T17:38:38.407Z,9.60
2019-02-17T17:43:39.663Z,9.30
2019-02-17T17:48:40.880Z,9.10
2019-02-17T17:53:42.108Z,8.90
2019-02-17T17:58:43.452Z,9.60
2019-02-17T18:03:44.590Z,8.70
2019-02-17T18:08:45.808Z,8.60
2019-02-17T18:13:46.909Z,8.50
2019-02-17T18:18:48.084Z,8.60
2019-02-17T18:23:49.195Z,8.60
2019-02-17T18:28:50.526Z,8.60
2019-02-17T18:33:51.674Z,8.50
2019-02-17T18:38:52.836Z,6.60
2019-02-17T18:43:54.180Z,8.40
2019-02-17T18:48:55.666Z,8.30
2019-02-17T18:53:56.969Z,8.30
2019-02-17T18:58:58.200Z,8.30
2019-02-17T19:03:59.461Z,8.60
2019-02-17T19:09:02.556Z,9.00
2019-02-17T19:14:03.880Z,9.30
2019-02-17T19:19:05.025Z,9.70
2019-02-17T19:24:06.157Z,13.10
2019-02-17T19:29:11.528Z,10.50
2019-02-17T19:34:10.366Z,10.50
2019-02-17T19:39:11.572Z,10.50
2019-02-17T19:44:12.801Z,10.60
2019-02-17T19:49:13.941Z,10.30
2019-02-17T19:54:15.183Z,10.00
2019-02-17T19:59:16.420Z,9.70
2019-02-17T20:04:25.534Z,9.60
2019-02-17T20:09:26.739Z,9.30
2019-02-17T20:14:27.965Z,9.10
2019-02-17T20:19:29.116Z,9.00
2019-02-17T20:24:30.247Z,9.30
2019-02-17T20:29:31.489Z,8.70
2019-02-17T20:34:32.573Z,8.40
2019-02-17T20:39:33.821Z,8.10
2019-02-17T20:44:35.047Z,7.60
2019-02-17T20:49:36.156Z,7.30
2019-02-17T20:54:37.272Z,7.00
2019-02-17T20:59:38.419Z,7.10
2019-02-17T21:04:39.635Z,6.90
2019-02-17T21:09:40.742Z,7.40
2019-02-17T21:14:41.956Z,6.80
2019-02-17T21:19:43.182Z,6.60
2019-02-17T21:24:44.355Z,6.40
2019-02-17T21:29:45.634Z,6.30
2019-02-17T21:34:46.765Z,6.00
2019-02-17T21:39:47.878Z,5.70
2019-02-17T21:44:48.992Z,5.50
2019-02-17T21:49:50.133Z,5.10
2019-02-17T21:54:51.338Z,5.50
2019-02-17T21:59:52.456Z,5.40
2019-02-17T22:04:53.580Z,4.60
2019-02-17T22:09:54.673Z,3.90
2019-02-17T22:14:55.820Z,3.70
2019-02-17T22:19:56.943Z,3.80
2019-02-17T22:24:58.030Z,3.70
2019-02-17T22:29:59.127Z,3.40
2019-02-17T22:35:00.363Z,3.10
2019-02-17T22:40:02.141Z,2.90
2019-02-17T22:45:06.353Z,2.70
2019-02-17T22:50:14.343Z,3.70
2019-02-17T22:55:15.534Z,2.70
2019-02-17T23:00:39.710Z,2.60
2019-02-17T23:05:41.023Z,2.40
2019-02-17T23:10:42.127Z,2.20
2019-02-17T23:15:43.250Z,2.10
2019-02-17T23:20:44.474Z,2.20
2019-02-17T23:25:45.579Z,2.20
2019-02-17T23:30:46.689Z,2.10
2019-02-17T23:35:47.786Z,2.20
2019-02-17T23:40:48.881Z,2.40
2019-02-17T23:45:50.006Z,2.20
2019-02-17T23:50:51.118Z,2.10
2019-02-17T23:55:52.227Z,1.80
